This is the latest recevied weather packets stored in our database for station/object YF9UAG-17. If no packets are shown the sender has not sent any weather packets the latest 10 day(s).
| Time | Temp. | Humidity | Pressure | Rain* | Wind** | Luminosity | Snow |
|---|---|---|---|---|---|---|---|
| 1787908547 | 31.67° C | 42% | 1030.5 hPa | - | - | - | - |
| 1787907945 | 31.11° C | 41% | 1030.5 hPa | - | - | - | - |
| 1787907342 | 30.56° C | 39% | 1030.4 hPa | - | - | - | - |
| 1787906740 | 32.22° C | 37% | 1030.4 hPa | - | - | - | - |
| 1787906138 | 31.11° C | 43% | 1030.4 hPa | - | - | - | - |
| 1787905535 | 31.67° C | 39% | 1030.3 hPa | - | - | - | - |
| 1787904933 | 32.22° C | 36% | 1030.2 hPa | - | - | - | - |
| 1787904330 | 31.11° C | 41% | 1030.3 hPa | - | - | - | - |
| 1787903728 | 32.22° C | 37% | 1030.3 hPa | - | - | - | - |
| 1787903126 | 31.67° C | 40% | 1030.4 hPa | - | - | - | - |
| 1787902523 | 30.56° C | 41% | 1030.4 hPa | - | - | - | - |
| 1787901921 | 31.67° C | 39% | 1030.5 hPa | - | - | - | - |
| 1787901319 | 31.67° C | 35% | 1030.5 hPa | - | - | - | - |
| 1787900716 | 32.22° C | 38% | 1030.7 hPa | - | - | - | - |
| 1787900114 | 31.11° C | 40% | 1030.8 hPa | - | - | - | - |
| 1787899511 | 30° C | 41% | 1031 hPa | - | - | - | - |
| 1787898909 | 30° C | 42% | 1031.2 hPa | - | - | - | - |
| 1787898307 | 31.11° C | 42% | 1031.4 hPa | - | - | - | - |
| 1787897704 | 31.11° C | 42% | 1031.5 hPa | - | - | - | - |
| 1787897102 | 31.11° C | 41% | 1031.6 hPa | - | - | - | - |
| 1787896499 | 31.67° C | 42% | 1031.9 hPa | - | - | - | - |
| 1787895897 | 30.56° C | 45% | 1032 hPa | - | - | - | - |
| 1787895295 | 31.11° C | 39% | 1032.2 hPa | - | - | - | - |
| 1787894692 | 30° C | 46% | 1032.5 hPa | - | - | - | - |
| 1787894089 | 30° C | 44% | 1032.4 hPa | - | - | - | - |
* Rain since midnight (hover to see other rain measurements)
** Current wind speed in m/s (hover to see current wind gust speed)